createdAt,value
2018-07-28T00:01:43.181Z,100058.11
2018-07-28T00:04:13.198Z,100059.64
2018-07-28T00:06:42.988Z,100064.03
2018-07-28T00:09:12.701Z,100064.95
2018-07-28T00:11:42.418Z,100053.31
2018-07-28T00:14:12.229Z,100061.55
2018-07-28T00:16:42.067Z,100060.64
2018-07-28T00:19:11.828Z,100055.75
2018-07-28T00:21:41.572Z,100047.62
2018-07-28T00:24:10.911Z,100056.28
2018-07-28T00:26:40.666Z,100057.39
2018-07-28T00:29:10.359Z,100053.93
2018-07-28T00:31:40.001Z,100049.05
2018-07-28T00:34:09.741Z,100045.49
2018-07-28T00:36:39.519Z,100036.63
2018-07-28T00:39:13.202Z,100038.58
2018-07-28T00:41:43.172Z,100038.39
2018-07-28T00:44:12.945Z,100033.43
2018-07-28T00:46:42.635Z,100032.72
2018-07-28T00:49:12.335Z,100024.47
2018-07-28T00:51:42.047Z,100024.13
2018-07-28T00:54:11.780Z,100025.58
2018-07-28T00:56:41.461Z,100024.15
2018-07-28T00:59:11.109Z,100022.96
2018-07-28T01:01:40.914Z,100020.31
2018-07-28T01:04:10.626Z,100023.13
2018-07-28T01:06:40.347Z,100017.23
2018-07-28T01:09:10.563Z,100030.67
2018-07-28T01:11:40.221Z,100029.14
2018-07-28T01:14:09.918Z,100026.10
2018-07-28T01:16:39.684Z,100033.50
2018-07-28T01:19:09.519Z,100052.92
2018-07-28T01:21:39.249Z,100069.87
2018-07-28T01:24:09.051Z,100067.09
2018-07-28T01:26:38.709Z,100060.27
2018-07-28T01:29:13.457Z,100048.91
2018-07-28T01:31:43.148Z,100056.52
2018-07-28T01:34:12.875Z,100071.89
2018-07-28T01:36:42.548Z,100068.76
2018-07-28T01:39:14.481Z,100049.41
2018-07-28T01:41:44.706Z,100044.91
2018-07-28T01:44:14.404Z,100058.13
2018-07-28T01:46:44.249Z,100064.09
2018-07-28T01:49:13.905Z,100055.58
2018-07-28T01:51:43.669Z,100049.92
2018-07-28T01:54:13.362Z,100039.52
2018-07-28T01:56:43.109Z,100034.22
2018-07-28T01:59:12.896Z,100021.06
2018-07-28T02:01:43.234Z,100010.66
2018-07-28T02:04:12.939Z,100003.03
2018-07-28T02:06:42.780Z,99987.42
2018-07-28T02:09:12.883Z,99986.52
2018-07-28T02:11:42.625Z,99986.37
2018-07-28T02:14:12.260Z,99985.25
2018-07-28T02:16:42.070Z,99989.46
2018-07-28T02:19:11.830Z,99989.46
2018-07-28T02:21:41.541Z,99987.94
2018-07-28T02:24:11.289Z,99976.21
2018-07-28T02:26:41.202Z,99971.86
2018-07-28T02:29:11.433Z,99975.34
2018-07-28T02:31:41.671Z,99979.07
2018-07-28T02:34:11.380Z,99981.86
2018-07-28T02:36:41.030Z,99983.98
2018-07-28T02:39:11.919Z,99982.24
2018-07-28T02:41:42.050Z,99978.87
2018-07-28T02:44:11.999Z,99972.56
2018-07-28T02:46:41.699Z,99979.70
2018-07-28T02:49:11.373Z,99990.60
2018-07-28T02:51:41.101Z,99986.63
2018-07-28T02:54:10.871Z,100003.63
2018-07-28T02:56:40.552Z,100080.22
2018-07-28T02:59:10.359Z,100074.05
2018-07-28T03:01:40.050Z,100049.25
2018-07-28T03:04:09.724Z,100071.95
2018-07-28T03:06:39.463Z,100044.66
2018-07-28T03:09:12.362Z,100064.02
2018-07-28T03:11:42.545Z,100062.91
2018-07-28T03:14:12.249Z,100051.45
2018-07-28T03:16:41.931Z,100067.42
2018-07-28T03:19:11.588Z,100049.09
2018-07-28T03:21:41.305Z,100060.34
2018-07-28T03:24:11.077Z,100059.31
2018-07-28T03:26:40.801Z,100072.58
2018-07-28T03:29:10.437Z,100021.59
2018-07-28T03:31:40.167Z,100062.77
2018-07-28T03:34:09.858Z,100047.90
2018-07-28T03:36:39.579Z,100022.34
2018-07-28T03:39:11.479Z,100048.45
2018-07-28T03:41:41.376Z,100053.39
2018-07-28T03:44:10.835Z,100040.18
2018-07-28T03:46:40.558Z,100049.63
2018-07-28T03:49:10.457Z,100043.70
2018-07-28T03:51:40.147Z,100035.98
2018-07-28T03:54:10.531Z,100049.73
2018-07-28T03:56:40.215Z,100018.64
2018-07-28T03:59:09.951Z,100019.72
2018-07-28T04:01:39.657Z,100031.63
2018-07-28T04:04:09.366Z,100027.68
2018-07-28T04:06:39.039Z,100014.94
2018-07-28T04:09:10.102Z,100009.91
2018-07-28T04:11:39.901Z,100010.93
2018-07-28T04:14:09.661Z,100013.45
2018-07-28T04:16:39.330Z,100011.59
2018-07-28T04:19:09.029Z,100010.27
2018-07-28T04:21:38.704Z,100006.29
2018-07-28T04:24:08.387Z,100009.42
2018-07-28T04:26:38.138Z,100003.16
2018-07-28T04:29:07.826Z,100011.31
2018-07-28T04:31:37.538Z,100004.20
2018-07-28T04:34:07.333Z,100000.66
2018-07-28T04:36:37.062Z,99999.16
2018-07-28T04:39:11.096Z,99988.00
2018-07-28T04:41:41.277Z,99978.22
2018-07-28T04:44:11.516Z,99962.50
2018-07-28T04:46:41.264Z,99951.19
2018-07-28T04:49:10.908Z,99954.63
2018-07-28T04:51:40.660Z,99965.95
2018-07-28T04:54:10.594Z,99966.03
2018-07-28T04:56:40.229Z,99965.38
2018-07-28T04:59:10.021Z,99964.45
2018-07-28T05:01:39.680Z,99952.43
2018-07-28T05:04:09.622Z,99948.45
2018-07-28T05:06:39.290Z,99946.22
2018-07-28T05:09:10.618Z,99950.83
2018-07-28T05:11:40.298Z,99950.22
2018-07-28T05:14:10.125Z,99950.59
2018-07-28T05:16:39.819Z,99954.22
2018-07-28T05:19:09.489Z,99945.34
2018-07-28T05:21:39.588Z,99942.25
2018-07-28T05:24:09.312Z,99957.50
2018-07-28T05:26:39.060Z,99972.83
2018-07-28T05:29:08.700Z,99985.00
2018-07-28T05:31:38.374Z,99987.45
2018-07-28T05:34:08.171Z,99998.05
2018-07-28T05:36:37.821Z,99992.71
2018-07-28T05:39:12.182Z,99981.08
2018-07-28T05:41:41.938Z,99979.39
2018-07-28T05:44:11.682Z,99999.44
2018-07-28T05:46:41.410Z,100038.36
2018-07-28T05:49:11.158Z,100032.63
2018-07-28T05:51:41.059Z,100023.91
2018-07-28T05:54:11.655Z,100038.56
2018-07-28T05:56:41.357Z,100042.78
2018-07-28T05:59:11.144Z,100045.77
2018-07-28T06:01:41.053Z,100052.55
2018-07-28T06:04:11.889Z,100071.27
2018-07-28T06:06:41.653Z,100051.64
2018-07-28T06:09:11.789Z,100033.87
2018-07-28T06:11:41.498Z,100061.94
2018-07-28T06:14:11.474Z,100079.92
2018-07-28T06:16:41.254Z,100073.73
2018-07-28T06:19:11.237Z,100067.67
2018-07-28T06:21:41.044Z,100063.45
2018-07-28T06:24:10.934Z,100060.06
2018-07-28T06:26:40.845Z,100062.33
2018-07-28T06:29:10.539Z,100055.25
2018-07-28T06:31:40.331Z,100064.07
2018-07-28T06:34:09.970Z,100079.22
2018-07-28T06:36:39.685Z,100088.98
2018-07-28T06:39:12.893Z,100093.66
2018-07-28T06:41:42.669Z,100096.89
2018-07-28T06:44:12.539Z,100106.39
2018-07-28T06:46:42.247Z,100110.59
2018-07-28T06:49:11.964Z,100113.72
2018-07-28T06:51:41.681Z,100113.72
2018-07-28T06:54:11.454Z,100120.91
2018-07-28T06:56:41.329Z,100117.27
2018-07-28T06:59:11.029Z,100119.67
2018-07-28T07:01:40.898Z,100128.13
2018-07-28T07:04:10.619Z,100124.68
2018-07-28T07:06:40.314Z,100126.81
2018-07-28T07:09:11.916Z,100128.69
2018-07-28T07:11:41.733Z,100118.63
2018-07-28T07:14:11.377Z,100122.90
2018-07-28T07:16:41.025Z,100126.09
2018-07-28T07:19:10.698Z,100133.88
2018-07-28T07:24:10.091Z,100128.73
2018-07-28T07:26:40.033Z,100130.73
2018-07-28T07:29:09.681Z,100143.42
2018-07-28T07:31:39.497Z,100142.14
2018-07-28T07:34:09.256Z,100132.88
2018-07-28T07:36:39.175Z,100135.51
2018-07-28T07:39:09.977Z,100136.22
2018-07-28T07:41:39.677Z,100135.22
2018-07-28T07:44:09.371Z,100114.79
2018-07-28T07:46:39.110Z,100100.03
2018-07-28T07:49:08.830Z,100088.84
2018-07-28T07:51:39.602Z,100084.85
2018-07-28T07:54:10.114Z,100072.37
2018-07-28T07:56:40.009Z,100067.20
2018-07-28T07:59:10.255Z,100076.32
2018-07-28T08:01:40.260Z,100078.77
2018-07-28T08:04:10.044Z,100091.83
2018-07-28T08:06:39.848Z,100103.75
2018-07-28T08:09:10.860Z,100124.33
2018-07-28T08:11:41.741Z,100140.14
2018-07-28T08:14:11.136Z,100139.82
2018-07-28T08:16:40.898Z,100141.14
2018-07-28T08:19:10.790Z,100150.52
2018-07-28T08:21:40.745Z,100163.11
2018-07-28T08:24:10.754Z,100161.80
2018-07-28T08:26:40.646Z,100159.48
2018-07-28T08:29:11.279Z,100165.77
2018-07-28T08:31:41.132Z,100169.30
2018-07-28T08:34:11.044Z,100163.77
2018-07-28T08:36:40.797Z,100161.84
2018-07-28T08:39:13.797Z,100161.33
2018-07-28T08:41:44.374Z,100167.44
2018-07-28T08:44:14.822Z,100168.52
2018-07-28T08:46:44.517Z,100178.05
2018-07-28T08:49:14.451Z,100178.09
2018-07-28T08:51:44.212Z,100175.03
2018-07-28T08:54:14.175Z,100186.80
2018-07-28T08:56:44.233Z,100184.34
2018-07-28T08:59:14.046Z,100186.25
2018-07-28T09:01:43.768Z,100183.52
2018-07-28T09:04:13.466Z,100180.78
2018-07-28T09:06:43.287Z,100185.06
2018-07-28T09:09:13.252Z,100184.76
2018-07-28T09:11:43.126Z,100183.05
2018-07-28T09:14:12.918Z,100192.92
2018-07-28T09:16:42.750Z,100185.30
2018-07-28T09:19:14.156Z,100186.04
2018-07-28T09:21:43.484Z,100187.16
2018-07-28T09:24:13.764Z,100194.21
2018-07-28T09:26:43.755Z,100179.95
2018-07-28T09:29:13.445Z,100184.84
2018-07-28T09:31:43.850Z,100185.68
2018-07-28T09:34:13.546Z,100195.20
2018-07-28T09:36:42.889Z,100192.66
2018-07-28T09:39:13.134Z,100186.70
2018-07-28T09:41:42.874Z,100181.61
2018-07-28T09:44:12.946Z,100173.70
2018-07-28T09:46:42.712Z,100169.72
2018-07-28T09:49:12.487Z,100171.97
2018-07-28T09:51:42.162Z,100175.14
2018-07-28T09:54:11.643Z,100177.41
2018-07-28T09:56:41.373Z,100177.17
2018-07-28T09:59:11.393Z,100177.41
2018-07-28T10:01:41.101Z,100180.02
2018-07-28T10:04:10.859Z,100177.33
2018-07-28T10:06:40.543Z,100173.66
2018-07-28T10:09:12.342Z,100180.19
2018-07-28T10:11:42.194Z,100185.70
2018-07-28T10:14:12.146Z,100178.03
2018-07-28T10:16:41.990Z,100181.98
2018-07-28T10:19:11.844Z,100184.44
2018-07-28T10:21:41.589Z,100185.81
2018-07-28T10:24:11.376Z,100182.17
2018-07-28T10:26:41.168Z,100182.22
2018-07-28T10:29:10.921Z,100180.10
2018-07-28T10:31:40.677Z,100180.25
2018-07-28T10:34:10.390Z,100179.55
2018-07-28T10:36:40.126Z,100182.72
2018-07-28T10:39:13.805Z,100187.91
2018-07-28T10:41:43.957Z,100180.45
2018-07-28T10:44:13.715Z,100175.71
2018-07-28T10:46:43.420Z,100174.69
2018-07-28T10:49:13.219Z,100183.11
2018-07-28T10:51:42.983Z,100182.88
2018-07-28T10:54:12.690Z,100186.77
2018-07-28T10:56:42.453Z,100181.61
2018-07-28T10:59:12.185Z,100173.74
2018-07-28T11:01:41.895Z,100178.83
2018-07-28T11:04:11.652Z,100176.34
2018-07-28T11:06:41.444Z,100177.35
2018-07-28T11:09:11.467Z,100179.87
2018-07-28T11:11:41.220Z,100169.84
2018-07-28T11:14:10.932Z,100164.23
2018-07-28T11:16:40.645Z,100170.34
2018-07-28T11:19:10.322Z,100166.28
2018-07-28T11:21:40.186Z,100165.83
2018-07-28T11:24:09.884Z,100160.63
2018-07-28T11:26:39.665Z,100163.73
2018-07-28T11:29:09.385Z,100163.14
2018-07-28T11:31:56.109Z,100165.07
2018-07-28T11:34:42.596Z,100163.63
2018-07-28T11:38:04.630Z,100162.23
2018-07-28T11:41:48.587Z,100154.73
2018-07-28T11:44:35.024Z,100142.27
2018-07-28T11:47:04.869Z,100147.05
2018-07-28T11:49:34.637Z,100151.88
2018-07-28T11:52:04.446Z,100146.63
2018-07-28T11:54:34.179Z,100145.70
2018-07-28T11:57:04.055Z,100146.08
2018-07-28T11:59:33.434Z,100159.09
2018-07-28T12:02:03.214Z,100172.14
2018-07-28T12:04:33.000Z,100171.81
2018-07-28T12:07:04.164Z,100162.84
2018-07-28T12:09:33.878Z,100155.84
2018-07-28T12:12:04.378Z,100157.27
2018-07-28T12:14:34.111Z,100165.30
2018-07-28T12:17:03.922Z,100166.69
2018-07-28T12:19:33.327Z,100171.79
2018-07-28T12:22:03.017Z,100169.13
2018-07-28T12:24:32.795Z,100171.02
2018-07-28T12:27:02.660Z,100172.27
2018-07-28T12:29:32.517Z,100181.05
2018-07-28T12:32:02.360Z,100186.76
2018-07-28T12:34:32.394Z,100187.77
2018-07-28T12:37:02.178Z,100183.10
2018-07-28T12:39:31.897Z,100180.10
2018-07-28T12:42:01.677Z,100178.75
2018-07-28T12:44:31.476Z,100179.80
2018-07-28T12:47:00.961Z,100183.52
2018-07-28T12:49:30.863Z,100181.30
2018-07-28T12:52:00.617Z,100182.16
2018-07-28T12:54:30.401Z,100182.45
2018-07-28T12:57:00.085Z,100190.58
2018-07-28T12:59:29.884Z,100181.70
2018-07-28T13:01:59.674Z,100184.09
2018-07-28T13:04:29.117Z,100192.52
2018-07-28T13:06:58.909Z,100193.84
2018-07-28T13:09:28.685Z,100193.94
2018-07-28T13:11:58.478Z,100185.75
2018-07-28T13:14:28.203Z,100183.33
2018-07-28T13:16:57.984Z,100183.48
2018-07-28T13:19:28.891Z,100183.67
2018-07-28T13:21:58.659Z,100181.12
2018-07-28T13:24:28.505Z,100183.84
2018-07-28T13:26:58.322Z,100185.71
2018-07-28T13:29:28.133Z,100188.58
2018-07-28T13:31:57.901Z,100186.59
2018-07-28T13:34:27.775Z,100189.23
2018-07-28T13:36:57.552Z,100190.81
2018-07-28T13:39:27.275Z,100199.35
2018-07-28T13:41:56.982Z,100207.98
2018-07-28T13:44:26.837Z,100197.02
2018-07-28T13:46:56.613Z,100188.88
2018-07-28T13:49:26.336Z,100177.64
2018-07-28T13:51:56.024Z,100178.46
2018-07-28T13:54:25.737Z,100177.72
2018-07-28T13:56:55.495Z,100179.58
2018-07-28T13:59:25.236Z,100172.63
2018-07-28T14:01:55.754Z,100167.23
2018-07-28T14:04:25.606Z,100166.92
2018-07-28T14:06:55.478Z,100174.14
2018-07-28T14:09:25.211Z,100180.29
2018-07-28T14:11:54.596Z,100177.58
2018-07-28T14:14:24.525Z,100176.54
2018-07-28T14:16:54.251Z,100164.72
2018-07-28T14:19:23.801Z,100163.20
2018-07-28T14:21:53.656Z,100172.91
2018-07-28T14:24:23.377Z,100168.31
2018-07-28T14:26:53.161Z,100170.42
2018-07-28T14:29:22.873Z,100188.63
2018-07-28T14:31:52.754Z,100185.55
2018-07-28T14:34:22.170Z,100183.97
2018-07-28T14:36:51.949Z,100179.75
2018-07-28T14:39:21.761Z,100178.47
2018-07-28T14:41:51.532Z,100175.81
2018-07-28T14:44:21.450Z,100170.56
2018-07-28T14:46:51.269Z,100172.16
2018-07-28T14:49:21.281Z,100188.48
2018-07-28T14:51:51.066Z,100203.62
2018-07-28T14:54:20.893Z,100208.96
2018-07-28T14:56:50.348Z,100214.14
2018-07-28T14:59:20.106Z,100215.41
2018-07-28T15:01:49.915Z,100225.55
2018-07-28T15:04:19.640Z,100221.67
2018-07-28T15:06:50.052Z,100216.09
2018-07-28T15:09:19.858Z,100225.95
2018-07-28T15:11:49.665Z,100232.06
2018-07-28T15:14:19.789Z,100229.52
2018-07-28T15:16:49.641Z,100230.57
2018-07-28T15:19:19.000Z,100242.02
2018-07-28T15:21:48.708Z,100239.26
2018-07-28T15:24:18.509Z,100247.24
2018-07-28T15:26:48.287Z,100246.62
2018-07-28T15:29:20.729Z,100248.61
2018-07-28T15:31:50.519Z,100249.80
2018-07-28T15:34:21.871Z,100250.50
2018-07-28T15:36:51.841Z,100252.20
2018-07-28T15:39:22.210Z,100253.28
2018-07-28T15:41:52.409Z,100255.00
2018-07-28T15:44:23.340Z,100252.73
2018-07-28T15:46:53.937Z,100257.45
2018-07-28T15:49:25.327Z,100256.27
2018-07-28T15:51:55.332Z,100256.10
2018-07-28T15:54:25.473Z,100256.97
2018-07-28T15:56:55.902Z,100252.77
2018-07-28T15:59:25.706Z,100256.43
2018-07-28T16:01:55.831Z,100259.25
2018-07-28T16:04:25.737Z,100257.72
2018-07-28T16:06:55.701Z,100260.20
2018-07-28T16:09:26.539Z,100258.78
2018-07-28T16:11:56.380Z,100253.54
2018-07-28T16:14:26.535Z,100258.14
2018-07-28T16:16:56.663Z,100265.02
2018-07-28T16:19:27.487Z,100253.28
2018-07-28T16:21:58.738Z,100262.84
2018-07-28T16:24:28.566Z,100265.34
2018-07-28T16:26:58.345Z,100260.78
2018-07-28T16:29:28.030Z,100261.13
2018-07-28T16:32:00.026Z,100259.12
2018-07-28T16:34:30.942Z,100250.69
2018-07-28T16:37:01.011Z,100270.91
2018-07-28T16:39:30.848Z,100271.98
2018-07-28T16:42:00.560Z,100280.23
2018-07-28T16:44:30.417Z,100281.41
2018-07-28T16:47:00.370Z,100294.17
2018-07-28T16:49:30.231Z,100285.73
2018-07-28T16:52:00.913Z,100290.12
2018-07-28T16:54:30.842Z,100294.27
2018-07-28T16:57:00.789Z,100293.05
2018-07-28T16:59:30.404Z,100295.31
2018-07-28T17:02:00.449Z,100318.73
2018-07-28T17:04:30.535Z,100323.44
2018-07-28T17:07:00.764Z,100318.90
2018-07-28T17:09:30.562Z,100320.05
2018-07-28T17:12:00.304Z,100321.52
2018-07-28T17:14:30.159Z,100332.01
2018-07-28T17:16:59.935Z,100339.41
2018-07-28T17:19:29.523Z,100348.61
2018-07-28T17:21:59.342Z,100362.55
2018-07-28T17:24:29.192Z,100368.53
2018-07-28T17:26:59.046Z,100374.52
2018-07-28T17:29:28.805Z,100374.41
2018-07-28T17:31:58.643Z,100375.51
2018-07-28T17:34:28.482Z,100384.08
2018-07-28T17:36:58.183Z,100386.00
2018-07-28T17:39:27.884Z,100387.04
2018-07-28T17:41:57.658Z,100393.81
2018-07-28T17:44:27.436Z,100397.90
2018-07-28T17:46:57.195Z,100392.75
2018-07-28T17:49:26.939Z,100406.50
2018-07-28T17:51:56.693Z,100399.53
2018-07-28T17:54:26.340Z,100406.28
2018-07-28T17:56:55.669Z,100404.69
2018-07-28T17:59:25.439Z,100409.06
2018-07-28T18:01:55.259Z,100418.88
2018-07-28T18:04:25.078Z,100428.13
2018-07-28T18:06:54.812Z,100430.04
2018-07-28T18:09:24.575Z,100433.78
2018-07-28T18:11:54.289Z,100442.52
2018-07-28T18:14:24.087Z,100442.48
2018-07-28T18:16:53.778Z,100450.41
2018-07-28T18:19:23.722Z,100451.68
2018-07-28T18:21:53.723Z,100450.78
2018-07-28T18:24:23.578Z,100450.92
2018-07-28T18:26:53.681Z,100456.22
2018-07-28T18:29:23.617Z,100457.17
2018-07-28T18:31:53.505Z,100462.98
2018-07-28T18:34:23.420Z,100466.75
2018-07-28T18:36:53.441Z,100469.23
2018-07-28T18:39:23.278Z,100482.92
2018-07-28T18:41:53.446Z,100483.02
2018-07-28T18:44:23.534Z,100479.50
2018-07-28T18:46:53.405Z,100488.54
2018-07-28T18:49:23.393Z,100489.38
2018-07-28T18:51:53.561Z,100490.16
2018-07-28T18:54:23.475Z,100494.64
2018-07-28T18:56:53.327Z,100490.50
2018-07-28T18:59:23.094Z,100490.61
2018-07-28T19:01:53.068Z,100491.78
2018-07-28T19:04:23.102Z,100496.86
2018-07-28T19:06:52.985Z,100495.17
2018-07-28T19:09:27.890Z,100503.47
2018-07-28T19:11:57.868Z,100502.24
2018-07-28T19:14:35.747Z,100501.28
2018-07-28T19:17:06.227Z,100504.67
2018-07-28T19:19:36.058Z,100509.91
2018-07-28T19:22:09.966Z,100510.48
2018-07-28T19:24:39.777Z,100524.30
2018-07-28T19:27:09.687Z,100528.37
2018-07-28T19:29:44.909Z,100537.50
2018-07-28T19:32:14.740Z,100542.50
2018-07-28T19:34:44.575Z,100554.02
2018-07-28T19:37:20.291Z,100558.81
2018-07-28T19:39:50.047Z,100563.84
2018-07-28T19:42:24.905Z,100571.48
2018-07-28T19:44:54.696Z,100571.11
2018-07-28T19:47:24.658Z,100569.68
2018-07-28T19:49:54.537Z,100567.86
2018-07-28T19:52:24.396Z,100568.09
2018-07-28T19:54:54.397Z,100572.22
2018-07-28T19:57:24.370Z,100582.44
2018-07-28T19:59:54.335Z,100581.38
2018-07-28T20:02:24.292Z,100588.09
2018-07-28T20:04:54.215Z,100591.02
2018-07-28T20:07:24.311Z,100585.95
2018-07-28T20:12:57.740Z,100603.10
2018-07-28T20:15:27.624Z,100602.83
2018-07-28T20:17:57.551Z,100606.55
2018-07-28T20:20:27.394Z,100608.98
2018-07-28T20:22:57.532Z,100611.98
2018-07-28T20:25:27.345Z,100610.20
2018-07-28T20:27:57.149Z,100617.38
2018-07-28T20:30:27.093Z,100621.92
2018-07-28T20:32:56.924Z,100620.41
2018-07-28T20:35:26.748Z,100626.70
2018-07-28T20:37:56.656Z,100629.70
2018-07-28T20:40:26.693Z,100631.58
2018-07-28T20:42:56.495Z,100644.66
2018-07-28T20:45:26.379Z,100644.06
2018-07-28T20:47:56.370Z,100644.35
2018-07-28T20:50:26.712Z,100651.58
2018-07-28T20:52:56.561Z,100650.20
2018-07-28T20:55:26.491Z,100652.30
2018-07-28T20:57:56.207Z,100662.39
2018-07-28T21:00:26.316Z,100661.58
2018-07-28T21:02:56.080Z,100670.05
2018-07-28T21:05:25.406Z,100671.80
2018-07-28T21:07:55.172Z,100662.61
2018-07-28T21:10:24.966Z,100670.23
2018-07-28T21:12:54.644Z,100671.23
2018-07-28T21:15:24.493Z,100680.41
2018-07-28T21:17:54.195Z,100680.72
2018-07-28T21:20:23.983Z,100681.98
2018-07-28T21:22:53.737Z,100687.34
2018-07-28T21:25:23.524Z,100691.54
2018-07-28T21:27:53.259Z,100692.05
2018-07-28T21:30:23.021Z,100691.30
2018-07-28T21:32:52.726Z,100695.13
2018-07-28T21:35:22.431Z,100700.50
2018-07-28T21:37:52.395Z,100698.64
2018-07-28T21:40:22.181Z,100701.84
2018-07-28T21:42:51.906Z,100703.92
2018-07-28T21:45:21.692Z,100704.50
2018-07-28T21:47:51.374Z,100716.88
2018-07-28T21:50:21.284Z,100715.89
2018-07-28T21:52:51.013Z,100713.80
2018-07-28T21:55:20.729Z,100713.53
2018-07-28T21:57:50.669Z,100714.63
2018-07-28T22:00:20.389Z,100713.36
2018-07-28T22:02:50.058Z,100723.80
2018-07-28T22:05:20.566Z,100725.13
2018-07-28T22:07:51.915Z,100731.11
2018-07-28T22:10:21.765Z,100734.16
2018-07-28T22:12:51.514Z,100737.38
2018-07-28T22:15:21.190Z,100735.22
2018-07-28T22:17:50.891Z,100738.61
2018-07-28T22:20:20.642Z,100745.64
2018-07-28T22:22:50.360Z,100746.86
2018-07-28T22:25:20.130Z,100754.50
2018-07-28T22:27:49.952Z,100760.08
2018-07-28T22:30:19.689Z,100756.42
2018-07-28T22:32:49.400Z,100759.64
2018-07-28T22:35:19.137Z,100761.63
2018-07-28T22:37:48.882Z,100766.59
2018-07-28T22:40:18.718Z,100765.78
2018-07-28T22:42:49.798Z,100762.27
2018-07-28T22:45:20.688Z,100759.80
2018-07-28T22:47:50.604Z,100751.87
2018-07-28T22:50:20.288Z,100755.06
2018-07-28T22:52:50.042Z,100746.98
2018-07-28T22:55:19.826Z,100744.26
2018-07-28T22:57:50.336Z,100741.30
2018-07-28T23:00:20.017Z,100741.14
2018-07-28T23:02:49.900Z,100744.81
2018-07-28T23:05:19.729Z,100748.67
2018-07-28T23:07:49.477Z,100752.68
2018-07-28T23:10:19.152Z,100749.81
2018-07-28T23:12:48.863Z,100746.48
2018-07-28T23:15:18.615Z,100743.09
2018-07-28T23:17:48.298Z,100746.64
2018-07-28T23:20:18.001Z,100751.59
2018-07-28T23:22:47.644Z,100755.76
2018-07-28T23:25:17.341Z,100749.98
2018-07-28T23:27:47.056Z,100753.84
2018-07-28T23:30:16.756Z,100762.34
2018-07-28T23:32:47.511Z,100761.63
2018-07-28T23:35:17.265Z,100757.42
2018-07-28T23:37:47.015Z,100765.42
2018-07-28T23:40:16.396Z,100772.86
2018-07-28T23:42:46.137Z,100778.53
2018-07-28T23:45:15.829Z,100784.92
2018-07-28T23:47:45.594Z,100781.67
2018-07-28T23:50:15.355Z,100781.72
2018-07-28T23:52:45.166Z,100777.56
2018-07-28T23:55:14.973Z,100783.83
2018-07-28T23:57:44.741Z,100791.31
